createdAt,value
2022-08-19T00:03:42.943Z,99378.53
2022-08-19T00:08:45.755Z,99373.03
2022-08-19T00:13:49.294Z,99379.47
2022-08-19T00:18:51.099Z,99371.31
2022-08-19T00:23:53.258Z,99391.88
2022-08-19T00:28:55.514Z,99401.47
2022-08-19T00:33:57.092Z,99400.94
2022-08-19T00:38:59.512Z,99418.47
2022-08-19T00:44:05.262Z,99414.13
2022-08-19T00:49:15.491Z,99401.72
2022-08-19T00:54:17.999Z,99391.72
2022-08-19T01:00:01.049Z,99411.78
2022-08-19T01:04:42.143Z,99401.72
2022-08-19T01:09:44.180Z,99397.66
2022-08-19T01:14:46.337Z,99401.88
2022-08-19T01:19:48.681Z,99413.94
2022-08-19T01:24:50.746Z,99412.78
2022-08-19T01:29:53.441Z,99427.28
2022-08-19T01:34:54.996Z,99426.50
2022-08-19T01:39:56.929Z,99425.03
2022-08-19T01:44:58.585Z,99411.75
2022-08-19T01:50:00.255Z,99404.47
2022-08-19T01:55:01.850Z,99423.00
2022-08-19T02:00:07.842Z,99428.59
2022-08-19T02:05:13.437Z,99425.19
2022-08-19T02:10:21.266Z,99404.59
2022-08-19T02:15:22.898Z,99376.34
2022-08-19T02:20:24.848Z,99399.78
2022-08-19T02:25:26.406Z,99417.38
2022-08-19T02:30:28.039Z,99428.59
2022-08-19T02:35:29.635Z,99420.28
2022-08-19T02:40:35.275Z,99418.00
2022-08-19T02:45:41.374Z,99401.63
2022-08-19T02:50:51.701Z,99402.69
2022-08-19T02:55:54.898Z,99407.44
2022-08-19T03:00:57.890Z,99422.38
2022-08-19T03:06:15.273Z,99425.28
2022-08-19T03:11:18.423Z,99423.31
2022-08-19T03:16:21.001Z,99423.94
2022-08-19T03:21:25.003Z,99405.19
2022-08-19T03:26:26.865Z,99410.63
2022-08-19T03:31:44.610Z,99417.59
2022-08-19T03:36:50.107Z,99430.81
2022-08-19T03:42:32.205Z,99423.63
2022-08-19T03:47:17.896Z,99433.47
2022-08-19T03:52:19.496Z,99436.84
2022-08-19T03:57:21.559Z,99448.63
2022-08-19T04:02:26.745Z,99440.53
2022-08-19T04:07:28.375Z,99438.41
2022-08-19T04:12:29.919Z,99448.25
2022-08-19T04:17:31.476Z,99436.22
2022-08-19T04:22:33.022Z,99435.97
2022-08-19T04:27:35.054Z,99426.28
2022-08-19T04:32:36.576Z,99435.13
2022-08-19T04:37:39.283Z,99436.53
2022-08-19T04:42:40.852Z,99432.44
2022-08-19T04:47:49.187Z,99443.19
2022-08-19T04:53:00.145Z,99447.28
2022-08-19T04:58:02.893Z,99438.88
2022-08-19T05:03:04.430Z,99438.72
2022-08-19T05:08:09.359Z,99435.53
2022-08-19T05:13:13.251Z,99452.44
2022-08-19T05:18:33.167Z,99459.03
2022-08-19T05:23:34.734Z,99480.28
2022-08-19T05:28:36.279Z,99488.31
2022-08-19T05:33:38.476Z,99486.09
2022-08-19T05:38:40.029Z,99505.94
2022-08-19T05:43:41.643Z,99521.75
2022-08-19T05:48:43.197Z,99527.72
2022-08-19T05:53:46.328Z,99545.78
2022-08-19T05:58:48.189Z,99536.81
2022-08-19T06:03:49.810Z,99546.91
2022-08-19T06:08:51.653Z,99566.81
2022-08-19T06:13:59.641Z,99583.84
2022-08-19T06:19:04.705Z,99607.91
2022-08-19T06:24:08.145Z,99612.22
2022-08-19T06:29:11.570Z,99611.72
2022-08-19T06:34:28.226Z,99622.13
2022-08-19T06:39:32.189Z,99623.88
2022-08-19T06:44:43.325Z,99620.66
2022-08-19T06:49:45.234Z,99636.22
2022-08-19T06:54:56.411Z,99639.69
2022-08-19T06:59:58.464Z,99653.44
2022-08-19T07:05:00.329Z,99646.13
2022-08-19T07:10:04.865Z,99640.84
2022-08-19T07:15:09.725Z,99634.16
2022-08-19T07:20:11.878Z,99631.97
2022-08-19T07:25:14.243Z,99650.09
2022-08-19T07:30:16.013Z,99665.41
2022-08-19T07:35:20.322Z,99660.84
2022-08-19T07:40:22.085Z,99676.16
2022-08-19T07:45:23.729Z,99678.56
2022-08-19T07:50:25.354Z,99671.91
2022-08-19T07:55:41.740Z,99653.56
2022-08-19T08:00:46.552Z,99658.25
2022-08-19T08:06:07.191Z,99679.53
2022-08-19T08:11:09.395Z,99683.09
2022-08-19T08:16:14.213Z,99693.16
2022-08-19T08:21:16.276Z,99687.53
2022-08-19T08:26:19.271Z,99686.78
2022-08-19T08:31:21.120Z,99694.16
2022-08-19T08:36:22.678Z,99697.38
2022-08-19T08:41:50.263Z,99706.03
2022-08-19T08:46:57.626Z,99715.81
2022-08-19T08:52:15.163Z,99714.44
2022-08-19T08:58:00.240Z,99708.50
2022-08-19T09:03:04.413Z,99709.66
2022-08-19T09:08:47.570Z,99721.53
2022-08-19T09:14:01.369Z,99718.81
2022-08-19T09:19:06.360Z,99717.63
2022-08-19T09:24:08.120Z,99718.91
2022-08-19T09:29:09.999Z,99697.94
2022-08-19T09:34:21.001Z,99691.41
2022-08-19T09:39:23.690Z,99682.78
2022-08-19T09:44:25.329Z,99682.91
2022-08-19T09:49:28.802Z,99677.94
2022-08-19T09:54:30.504Z,99679.59
2022-08-19T09:59:32.366Z,99685.72
2022-08-19T10:04:53.839Z,99704.19
2022-08-19T10:09:55.569Z,99687.66
2022-08-19T10:14:57.810Z,99691.75
2022-08-19T10:19:59.422Z,99688.38
2022-08-19T10:25:01.877Z,99700.38
2022-08-19T10:30:04.004Z,99708.53
2022-08-19T10:35:11.694Z,99715.97
2022-08-19T10:40:17.727Z,99724.44
2022-08-19T10:45:19.387Z,99715.63
2022-08-19T10:50:56.555Z,99721.25
2022-08-19T10:56:16.489Z,99733.97
2022-08-19T11:01:18.085Z,99733.72
2022-08-19T11:06:20.585Z,99737.34
2022-08-19T11:11:22.817Z,99742.66
2022-08-19T11:16:27.606Z,99749.91
2022-08-19T11:21:49.657Z,99753.47
2022-08-19T11:26:53.792Z,99761.97
2022-08-19T11:31:55.881Z,99759.94
2022-08-19T11:37:00.634Z,99760.56
2022-08-19T11:42:25.445Z,99762.81
2022-08-19T11:47:27.184Z,99759.03
2022-08-19T11:52:30.700Z,99751.34
2022-08-19T11:57:32.585Z,99769.91
2022-08-19T12:02:34.559Z,99772.59
2022-08-19T12:07:36.857Z,99767.56
2022-08-19T12:12:43.270Z,99766.16
2022-08-19T12:17:44.919Z,99782.00
2022-08-19T12:22:46.964Z,99787.59
2022-08-19T12:27:56.739Z,99790.88
2022-08-19T12:32:58.949Z,99789.41
2022-08-19T12:38:02.675Z,99788.97
2022-08-19T12:43:05.154Z,99795.25
2022-08-19T12:48:33.506Z,99799.22
2022-08-19T12:53:31.441Z,99801.94
2022-08-19T12:58:35.416Z,99800.28
2022-08-19T13:03:40.586Z,99793.53
2022-08-19T13:08:42.818Z,99794.69
2022-08-19T13:13:51.215Z,99795.31
2022-08-19T13:18:52.928Z,99791.50
2022-08-19T13:23:55.207Z,99786.78
2022-08-19T13:29:15.538Z,99792.94
2022-08-19T13:34:20.113Z,99788.03
2022-08-19T13:39:23.941Z,99800.28
2022-08-19T13:44:25.695Z,99785.06
2022-08-19T13:49:31.913Z,99789.41
2022-08-19T13:54:33.640Z,99791.66
2022-08-19T13:59:35.458Z,99783.97
2022-08-19T14:04:38.465Z,99791.44
2022-08-19T14:09:40.122Z,99787.38
2022-08-19T14:14:41.727Z,99796.97
2022-08-19T14:19:43.869Z,99783.91
2022-08-19T14:24:51.113Z,99789.28
2022-08-19T14:29:53.444Z,99793.53
2022-08-19T14:34:55.539Z,99797.25
2022-08-19T14:39:57.247Z,99803.78
2022-08-19T14:45:00.351Z,99803.03
2022-08-19T14:50:05.150Z,99813.09
2022-08-19T14:55:07.456Z,99809.16
2022-08-19T15:00:16.507Z,99812.41
2022-08-19T15:05:18.401Z,99803.28
2022-08-19T15:10:20.077Z,99785.75
2022-08-19T15:15:22.976Z,99796.00
2022-08-19T15:20:25.110Z,99800.63
2022-08-19T15:25:27.991Z,99809.63
2022-08-19T15:30:29.899Z,99815.19
2022-08-19T15:35:31.450Z,99808.56
2022-08-19T15:40:33.011Z,99789.66
2022-08-19T15:45:34.619Z,99782.28
2022-08-19T15:50:36.321Z,99780.50
2022-08-19T15:55:43.971Z,99774.81
2022-08-19T16:01:14.494Z,99769.84
2022-08-19T16:06:27.998Z,99765.34
2022-08-19T16:11:32.668Z,99774.66
2022-08-19T16:16:34.586Z,99776.47
2022-08-19T16:21:37.086Z,99780.91
2022-08-19T16:26:40.768Z,99786.47
2022-08-19T16:31:44.168Z,99780.03
2022-08-19T16:36:45.761Z,99763.97
2022-08-19T16:41:47.428Z,99768.28
2022-08-19T16:46:58.522Z,99755.69
2022-08-19T16:52:02.537Z,99741.69
2022-08-19T16:57:06.690Z,99751.41
2022-08-19T17:02:14.499Z,99753.28
2022-08-19T17:07:16.059Z,99753.09
2022-08-19T17:12:17.720Z,99761.38
2022-08-19T17:17:19.766Z,99764.66
2022-08-19T17:22:21.345Z,99775.59
2022-08-19T17:27:23.197Z,99786.59
2022-08-19T17:32:25.059Z,99774.38
2022-08-19T17:37:28.137Z,99774.09
2022-08-19T17:42:29.866Z,99767.81
2022-08-19T17:47:31.454Z,99754.97
2022-08-19T17:52:33.344Z,99774.97
2022-08-19T17:57:35.356Z,99803.41
2022-08-19T18:02:48.030Z,99813.41
2022-08-19T18:07:53.278Z,99824.88
2022-08-19T18:12:55.849Z,99836.66
2022-08-19T18:17:58.264Z,99860.16
2022-08-19T18:23:44.078Z,99878.34
2022-08-19T18:28:23.888Z,99898.53
2022-08-19T18:33:25.869Z,99888.44
2022-08-19T18:38:46.139Z,99904.59
2022-08-19T18:44:06.997Z,99880.13
2022-08-19T18:49:10.378Z,99878.97
2022-08-19T18:54:12.583Z,99865.00
2022-08-19T18:59:14.259Z,99872.97
2022-08-19T19:04:17.700Z,99868.91
2022-08-19T19:09:21.786Z,99871.50
2022-08-19T19:14:50.641Z,99868.19
2022-08-19T19:19:52.230Z,99865.84
2022-08-19T19:24:56.734Z,99864.47
2022-08-19T19:30:14.252Z,99861.13
2022-08-19T19:35:15.805Z,99857.56
2022-08-19T19:40:17.469Z,99855.22
2022-08-19T19:45:19.114Z,99868.97
2022-08-19T19:50:20.746Z,99878.69
2022-08-19T19:55:22.400Z,99865.66
2022-08-19T20:00:25.267Z,99843.38
2022-08-19T20:05:26.951Z,99849.28
2022-08-19T20:10:28.591Z,99869.78
2022-08-19T20:15:32.131Z,99863.66
2022-08-19T20:20:34.234Z,99880.28
2022-08-19T20:25:38.124Z,99914.91
2022-08-19T20:30:46.627Z,99902.44
2022-08-19T20:35:49.720Z,99895.56
2022-08-19T20:40:52.721Z,99886.16
2022-08-19T20:45:55.731Z,99885.38
2022-08-19T20:50:57.530Z,99894.97
2022-08-19T20:55:59.879Z,99899.22
2022-08-19T21:01:03.278Z,99894.25
2022-08-19T21:06:05.208Z,99876.56
2022-08-19T21:11:07.524Z,99872.53
2022-08-19T21:16:09.317Z,99883.47
2022-08-19T21:21:11.113Z,99873.97
2022-08-19T21:26:12.673Z,99878.34
2022-08-19T21:31:15.788Z,99890.00
2022-08-19T21:36:17.530Z,99894.25
2022-08-19T21:41:19.142Z,99885.25
2022-08-19T21:46:20.832Z,99895.22
2022-08-19T21:51:22.411Z,99896.97
2022-08-19T21:56:24.421Z,99881.19
2022-08-19T22:01:27.123Z,99865.91
2022-08-19T22:06:28.885Z,99869.50
2022-08-19T22:11:30.508Z,99867.09
2022-08-19T22:16:32.695Z,99875.41
2022-08-19T22:21:40.258Z,99889.50
2022-08-19T22:26:42.236Z,99891.06
2022-08-19T22:31:44.803Z,99882.66
2022-08-19T22:36:46.453Z,99873.75
2022-08-19T22:41:48.664Z,99877.19
2022-08-19T22:46:50.263Z,99896.88
2022-08-19T22:52:10.521Z,99892.13
2022-08-19T22:57:12.216Z,99900.53
2022-08-19T23:02:24.143Z,99890.81
2022-08-19T23:07:26.187Z,99887.34
2022-08-19T23:12:30.763Z,99895.31
2022-08-19T23:17:32.350Z,99880.38
2022-08-19T23:22:35.115Z,99877.63
2022-08-19T23:27:55.257Z,99865.91
2022-08-19T23:33:12.248Z,99861.16
2022-08-19T23:38:14.465Z,99868.75
2022-08-19T23:43:20.863Z,99870.06
2022-08-19T23:48:28.353Z,99875.03
2022-08-19T23:53:30.392Z,99868.75
2022-08-19T23:58:31.959Z,99868.97
